createdAt,value
2023-03-08T00:03:04.160Z,991.65
2023-03-08T00:06:11.760Z,991.70
2023-03-08T00:09:19.350Z,991.77
2023-03-08T00:12:26.714Z,991.77
2023-03-08T00:15:34.069Z,991.71
2023-03-08T00:18:41.355Z,991.73
2023-03-08T00:21:48.773Z,991.77
2023-03-08T00:24:56.112Z,991.86
2023-03-08T00:28:03.423Z,991.87
2023-03-08T00:31:11.157Z,991.93
2023-03-08T00:34:18.484Z,991.91
2023-03-08T00:37:26.119Z,992.00
2023-03-08T00:40:33.636Z,992.06
2023-03-08T00:43:40.808Z,992.03
2023-03-08T00:46:48.706Z,991.98
2023-03-08T00:49:56.559Z,992.09
2023-03-08T00:53:03.782Z,992.05
2023-03-08T00:56:11.170Z,992.09
2023-03-08T00:59:18.782Z,992.18
2023-03-08T01:02:28.091Z,992.10
2023-03-08T01:05:35.820Z,992.12
2023-03-08T01:08:43.966Z,992.08
2023-03-08T01:11:51.411Z,992.12
2023-03-08T01:15:00.009Z,992.17
2023-03-08T01:18:07.651Z,992.20
2023-03-08T01:21:15.289Z,992.22
2023-03-08T01:24:23.343Z,992.18
2023-03-08T01:27:30.843Z,992.19
2023-03-08T01:30:38.895Z,992.13
2023-03-08T01:33:47.073Z,992.11
2023-03-08T01:36:54.439Z,992.03
2023-03-08T01:40:02.801Z,992.03
2023-03-08T01:43:10.781Z,992.01
2023-03-08T01:46:18.256Z,991.99
2023-03-08T01:49:26.390Z,991.93
2023-03-08T01:52:34.104Z,991.99
2023-03-08T01:55:41.749Z,991.93
2023-03-08T01:58:49.858Z,991.92
2023-03-08T02:01:59.277Z,991.87
2023-03-08T02:05:06.956Z,991.88
2023-03-08T02:08:14.307Z,991.84
2023-03-08T02:11:22.305Z,991.78
2023-03-08T02:14:29.717Z,991.83
2023-03-08T02:17:37.019Z,991.83
2023-03-08T02:20:44.781Z,991.80
2023-03-08T02:23:51.943Z,991.88
2023-03-08T02:26:59.684Z,991.84
2023-03-08T02:30:07.427Z,991.73
2023-03-08T02:33:14.584Z,991.77
2023-03-08T02:36:22.446Z,991.77
2023-03-08T02:39:30.271Z,991.82
2023-03-08T02:42:37.338Z,991.76
2023-03-08T02:45:45.196Z,991.76
2023-03-08T02:48:52.703Z,991.72
2023-03-08T02:51:59.845Z,991.71
2023-03-08T02:55:07.265Z,991.65
2023-03-08T02:58:14.759Z,991.70
2023-03-08T03:01:22.352Z,991.71
2023-03-08T03:04:30.265Z,991.63
2023-03-08T03:07:37.994Z,991.65
2023-03-08T03:10:45.572Z,991.59
2023-03-08T03:13:53.623Z,991.65
2023-03-08T03:17:01.130Z,991.62
2023-03-08T03:20:08.832Z,991.70
2023-03-08T03:23:16.717Z,991.62
2023-03-08T03:26:24.221Z,991.65
2023-03-08T03:29:31.929Z,991.64
2023-03-08T03:32:39.720Z,991.61
2023-03-08T03:35:47.675Z,991.64
2023-03-08T03:38:55.406Z,991.66
2023-03-08T03:42:02.914Z,991.66
2023-03-08T03:45:10.639Z,991.70
2023-03-08T03:48:18.070Z,991.66
2023-03-08T03:51:25.786Z,991.64
2023-03-08T03:54:33.782Z,991.68
2023-03-08T03:57:40.985Z,991.65
2023-03-08T04:00:49.061Z,991.61
2023-03-08T04:03:56.854Z,991.72
2023-03-08T04:07:04.011Z,991.68
2023-03-08T04:10:11.850Z,991.70
2023-03-08T04:13:19.721Z,991.68
2023-03-08T04:16:29.088Z,991.58
2023-03-08T04:19:37.152Z,991.64
2023-03-08T04:22:44.937Z,991.65
2023-03-08T04:25:52.103Z,991.61
2023-03-08T04:29:00.052Z,991.66
2023-03-08T04:32:07.843Z,991.65
2023-03-08T04:35:15.553Z,991.62
2023-03-08T04:38:23.123Z,991.65
2023-03-08T04:41:30.592Z,991.63
2023-03-08T04:44:38.514Z,991.63
2023-03-08T04:47:45.894Z,991.65
2023-03-08T04:50:53.406Z,991.62
2023-03-08T04:54:01.328Z,991.61
2023-03-08T04:57:08.816Z,991.62
2023-03-08T05:00:16.416Z,991.54
2023-03-08T05:03:24.354Z,991.58
2023-03-08T05:06:31.608Z,991.53
2023-03-08T05:09:39.596Z,991.58
2023-03-08T05:12:47.445Z,991.61
2023-03-08T05:15:54.687Z,991.57
2023-03-08T05:19:02.700Z,991.57
2023-03-08T05:22:10.569Z,991.73
2023-03-08T05:25:17.857Z,991.65
2023-03-08T05:28:25.993Z,991.60
2023-03-08T05:31:33.722Z,991.62
2023-03-08T05:34:41.009Z,991.60
2023-03-08T05:37:48.982Z,991.51
2023-03-08T05:40:56.805Z,991.56
2023-03-08T05:44:04.687Z,991.48
2023-03-08T05:47:12.819Z,991.45
2023-03-08T05:50:20.413Z,991.46
2023-03-08T05:53:27.811Z,991.39
2023-03-08T05:56:35.757Z,991.31
2023-03-08T05:59:43.101Z,991.24
2023-03-08T06:02:50.835Z,991.28
2023-03-08T06:05:58.544Z,991.32
2023-03-08T06:09:06.178Z,991.28
2023-03-08T06:12:13.773Z,991.34
2023-03-08T06:15:21.263Z,991.39
2023-03-08T06:18:29.269Z,991.45
2023-03-08T06:21:36.959Z,991.48
2023-03-08T06:24:44.528Z,991.47
2023-03-08T06:27:52.328Z,991.47
2023-03-08T06:30:59.470Z,991.51
2023-03-08T06:34:07.681Z,991.57
2023-03-08T06:37:15.528Z,991.64
2023-03-08T06:40:22.731Z,991.65
2023-03-08T06:43:30.697Z,991.65
2023-03-08T06:46:38.566Z,991.55
2023-03-08T06:49:46.993Z,991.53
2023-03-08T06:52:54.816Z,991.50
2023-03-08T06:56:02.636Z,991.36
2023-03-08T06:59:09.878Z,991.33
2023-03-08T07:02:18.095Z,991.46
2023-03-08T07:05:25.847Z,991.39
2023-03-08T07:08:33.466Z,991.35
2023-03-08T07:11:41.279Z,991.40
2023-03-08T07:14:48.647Z,991.22
2023-03-08T07:17:55.914Z,991.27
2023-03-08T07:21:04.024Z,991.26
2023-03-08T07:24:11.593Z,991.24
2023-03-08T07:27:19.182Z,991.24
2023-03-08T07:30:27.155Z,991.33
2023-03-08T07:33:34.699Z,991.17
2023-03-08T07:36:42.326Z,991.17
2023-03-08T07:39:49.910Z,991.07
2023-03-08T07:42:57.701Z,991.04
2023-03-08T07:46:05.217Z,991.00
2023-03-08T07:49:12.689Z,990.94
2023-03-08T07:52:20.610Z,990.91
2023-03-08T07:55:28.133Z,990.86
2023-03-08T07:58:35.664Z,990.85
2023-03-08T08:01:43.155Z,990.86
2023-03-08T08:04:50.455Z,990.82
2023-03-08T08:07:58.315Z,990.77
2023-03-08T08:11:06.161Z,990.71
2023-03-08T08:14:13.308Z,990.75
2023-03-08T08:17:21.225Z,990.77
2023-03-08T08:20:29.013Z,990.76
2023-03-08T08:23:36.574Z,990.79
2023-03-08T08:26:44.432Z,990.74
2023-03-08T08:29:51.445Z,990.76
2023-03-08T08:32:59.432Z,990.75
2023-03-08T08:36:07.381Z,990.71
2023-03-08T08:39:14.973Z,990.67
2023-03-08T08:42:22.460Z,990.64
2023-03-08T08:45:30.414Z,990.61
2023-03-08T08:48:37.554Z,990.53
2023-03-08T08:51:45.469Z,990.60
2023-03-08T08:54:53.194Z,990.55
2023-03-08T08:58:00.699Z,990.52
2023-03-08T09:01:09.489Z,990.54
2023-03-08T09:04:17.480Z,990.50
2023-03-08T09:07:25.005Z,990.49
2023-03-08T09:10:32.456Z,990.55
2023-03-08T09:13:39.837Z,990.53
2023-03-08T09:16:47.879Z,990.39
2023-03-08T09:19:55.269Z,990.30
2023-03-08T09:23:02.794Z,990.30
2023-03-08T09:26:10.548Z,990.31
2023-03-08T09:29:17.555Z,990.25
2023-03-08T09:32:25.380Z,990.24
2023-03-08T09:35:33.093Z,990.20
2023-03-08T09:38:40.317Z,990.11
2023-03-08T09:41:48.188Z,990.03
2023-03-08T09:44:56.015Z,989.94
2023-03-08T09:48:03.188Z,989.89
2023-03-08T09:51:11.104Z,989.77
2023-03-08T09:54:18.443Z,989.75
2023-03-08T09:57:26.008Z,989.70
2023-03-08T10:00:33.990Z,989.73
2023-03-08T10:03:41.676Z,989.66
2023-03-08T10:06:49.288Z,989.57
2023-03-08T10:09:57.003Z,989.55
2023-03-08T10:13:04.543Z,989.48
2023-03-08T10:16:12.095Z,989.48
2023-03-08T10:19:19.497Z,989.42
2023-03-08T10:22:27.301Z,989.40
2023-03-08T10:25:34.655Z,989.32
2023-03-08T10:28:41.973Z,989.28
2023-03-08T10:31:49.810Z,989.26
2023-03-08T10:34:57.435Z,989.19
2023-03-08T10:38:05.022Z,989.13
2023-03-08T10:41:12.604Z,989.06
2023-03-08T10:44:22.612Z,989.06
2023-03-08T10:47:30.242Z,989.12
2023-03-08T10:50:37.792Z,989.03
2023-03-08T10:53:44.828Z,988.95
2023-03-08T10:56:52.506Z,988.88
2023-03-08T11:00:00.211Z,988.79
2023-03-08T11:03:07.135Z,988.83
2023-03-08T11:06:14.923Z,988.77
2023-03-08T11:09:22.340Z,988.67
2023-03-08T11:12:29.860Z,988.69
2023-03-08T11:15:37.676Z,988.64
2023-03-08T11:18:45.027Z,988.73
2023-03-08T11:21:52.391Z,988.70
2023-03-08T11:25:00.261Z,988.65
2023-03-08T11:28:07.641Z,988.62
2023-03-08T11:31:15.125Z,988.58
2023-03-08T11:34:22.677Z,988.57
2023-03-08T11:37:30.636Z,988.65
2023-03-08T11:40:38.075Z,988.70
2023-03-08T11:43:45.481Z,988.63
2023-03-08T11:46:52.937Z,988.64
2023-03-08T11:50:00.571Z,988.63
2023-03-08T11:53:07.906Z,988.70
2023-03-08T11:56:15.310Z,988.66
2023-03-08T11:59:22.645Z,988.62
2023-03-08T12:02:29.883Z,988.59
2023-03-08T12:05:37.894Z,988.62
2023-03-08T12:08:45.006Z,988.59
2023-03-08T12:11:52.836Z,988.65
2023-03-08T12:15:00.679Z,988.68
2023-03-08T12:18:07.794Z,988.70
2023-03-08T12:21:15.516Z,988.63
2023-03-08T12:24:22.963Z,988.65
2023-03-08T12:27:30.351Z,988.60
2023-03-08T12:30:37.968Z,988.62
2023-03-08T12:33:45.528Z,988.66
2023-03-08T12:36:52.857Z,988.70
2023-03-08T12:40:00.216Z,988.60
2023-03-08T12:43:08.085Z,988.65
2023-03-08T12:46:15.855Z,988.61
2023-03-08T12:49:23.528Z,988.59
2023-03-08T12:52:31.238Z,988.52
2023-03-08T12:55:38.257Z,988.46
2023-03-08T12:58:46.008Z,988.44
2023-03-08T13:01:53.699Z,988.37
2023-03-08T13:05:00.853Z,988.40
2023-03-08T13:08:08.705Z,988.46
2023-03-08T13:11:16.176Z,988.37
2023-03-08T13:14:23.572Z,988.36
2023-03-08T13:17:31.538Z,988.34
2023-03-08T13:20:41.447Z,988.22
2023-03-08T13:23:49.371Z,988.16
2023-03-08T13:26:56.844Z,988.22
2023-03-08T13:30:04.781Z,988.17
2023-03-08T13:33:12.276Z,988.22
2023-03-08T13:36:19.781Z,988.25
2023-03-08T13:39:27.662Z,988.23
2023-03-08T13:42:34.763Z,988.20
2023-03-08T13:45:42.367Z,988.16
2023-03-08T13:48:50.250Z,988.11
2023-03-08T13:51:57.346Z,988.15
2023-03-08T13:55:05.242Z,988.21
2023-03-08T13:58:12.622Z,988.16
2023-03-08T14:01:19.986Z,988.17
2023-03-08T14:04:27.984Z,988.13
2023-03-08T14:07:35.498Z,988.18
2023-03-08T14:10:43.100Z,988.06
2023-03-08T14:13:50.810Z,988.13
2023-03-08T14:16:58.298Z,988.04
2023-03-08T14:20:05.768Z,987.99
2023-03-08T14:23:15.320Z,987.93
2023-03-08T14:26:23.163Z,988.05
2023-03-08T14:29:30.624Z,987.96
2023-03-08T14:32:38.080Z,987.93
2023-03-08T14:35:45.828Z,987.94
2023-03-08T14:38:52.833Z,987.85
2023-03-08T14:42:00.590Z,987.77
2023-03-08T14:45:08.435Z,987.84
2023-03-08T14:48:15.509Z,987.76
2023-03-08T14:51:23.332Z,987.79
2023-03-08T14:54:31.003Z,987.67
2023-03-08T14:57:38.881Z,987.70
2023-03-08T15:00:46.723Z,987.70
2023-03-08T15:03:54.136Z,987.58
2023-03-08T15:07:01.737Z,987.51
2023-03-08T15:10:09.513Z,987.47
2023-03-08T15:13:16.880Z,987.38
2023-03-08T15:16:24.390Z,987.36
2023-03-08T15:19:31.905Z,987.18
2023-03-08T15:22:39.919Z,987.32
2023-03-08T15:25:47.272Z,987.24
2023-03-08T15:28:54.713Z,987.18
2023-03-08T15:32:02.913Z,987.14
2023-03-08T15:35:10.343Z,987.06
2023-03-08T15:38:17.720Z,987.02
2023-03-08T15:41:25.356Z,987.00
2023-03-08T15:44:32.424Z,987.04
2023-03-08T15:47:40.042Z,987.03
2023-03-08T15:50:47.331Z,987.07
2023-03-08T15:53:54.812Z,987.14
2023-03-08T15:57:02.500Z,987.18
2023-03-08T16:00:10.080Z,987.13
2023-03-08T16:03:17.211Z,987.05
2023-03-08T16:06:24.950Z,987.00
2023-03-08T16:09:32.492Z,987.02
2023-03-08T16:12:40.006Z,986.99
2023-03-08T16:15:47.377Z,987.00
2023-03-08T16:18:55.311Z,987.08
2023-03-08T16:22:03.080Z,987.08
2023-03-08T16:25:10.161Z,986.95
2023-03-08T16:28:18.194Z,986.94
2023-03-08T16:31:25.374Z,986.95
2023-03-08T16:34:33.224Z,986.98
2023-03-08T16:37:40.729Z,987.01
2023-03-08T16:40:48.255Z,987.03
2023-03-08T16:43:55.651Z,987.07
2023-03-08T16:47:03.190Z,987.31
2023-03-08T16:50:11.172Z,987.35
2023-03-08T16:53:19.304Z,987.22
2023-03-08T16:56:26.553Z,987.34
2023-03-08T16:59:34.574Z,987.45
2023-03-08T17:02:41.822Z,987.37
2023-03-08T17:05:48.976Z,987.34
2023-03-08T17:08:56.772Z,987.35
2023-03-08T17:12:04.079Z,987.27
2023-03-08T17:15:11.638Z,987.25
2023-03-08T17:18:18.935Z,987.24
2023-03-08T17:21:26.696Z,987.31
2023-03-08T17:24:34.283Z,987.29
2023-03-08T17:27:42.071Z,987.26
2023-03-08T17:30:49.574Z,987.31
2023-03-08T17:33:57.184Z,987.28
2023-03-08T17:37:05.069Z,987.35
2023-03-08T17:40:12.760Z,987.31
2023-03-08T17:43:20.260Z,987.33
2023-03-08T17:46:28.185Z,987.20
2023-03-08T17:49:35.910Z,987.27
2023-03-08T17:52:43.768Z,987.28
2023-03-08T17:55:51.707Z,987.35
2023-03-08T17:58:58.932Z,987.36
2023-03-08T18:02:06.661Z,987.33
2023-03-08T18:05:14.713Z,987.31
2023-03-08T18:08:22.086Z,987.39
2023-03-08T18:11:29.903Z,987.34
2023-03-08T18:14:40.172Z,987.26
2023-03-08T18:17:47.406Z,987.38
2023-03-08T18:21:10.678Z,987.24
2023-03-08T18:24:00.497Z,987.10
2023-03-08T18:27:08.134Z,987.08
2023-03-08T18:30:15.863Z,987.16
2023-03-08T18:33:23.465Z,987.19
2023-03-08T18:36:31.359Z,987.16
2023-03-08T18:39:39.060Z,987.14
2023-03-08T18:42:46.776Z,987.09
2023-03-08T18:45:54.709Z,987.01
2023-03-08T18:49:02.312Z,987.08
2023-03-08T18:52:09.831Z,987.16
2023-03-08T18:55:17.809Z,987.15
2023-03-08T18:58:25.052Z,987.15
2023-03-08T19:01:33.263Z,987.10
2023-03-08T19:04:41.614Z,987.03
2023-03-08T19:07:48.849Z,987.02
2023-03-08T19:10:56.764Z,987.06
2023-03-08T19:14:04.856Z,987.03
2023-03-08T19:17:13.320Z,986.96
2023-03-08T19:20:23.470Z,987.08
2023-03-08T19:23:30.951Z,987.07
2023-03-08T19:26:38.660Z,987.08
2023-03-08T19:29:46.649Z,987.10
2023-03-08T19:32:54.191Z,987.08
2023-03-08T19:36:01.650Z,986.99
2023-03-08T19:39:09.001Z,987.02
2023-03-08T19:42:16.469Z,986.89
2023-03-08T19:45:24.407Z,986.90
2023-03-08T19:48:31.536Z,986.85
2023-03-08T19:51:39.658Z,986.78
2023-03-08T19:54:47.760Z,986.77
2023-03-08T19:57:55.041Z,986.84
2023-03-08T20:01:03.124Z,986.84
2023-03-08T20:04:10.743Z,986.88
2023-03-08T20:07:18.349Z,986.91
2023-03-08T20:10:26.078Z,986.93
2023-03-08T20:13:33.763Z,986.84
2023-03-08T20:16:41.519Z,986.76
2023-03-08T20:19:49.089Z,986.76
2023-03-08T20:22:56.981Z,986.87
2023-03-08T20:26:04.498Z,986.80
2023-03-08T20:29:12.057Z,986.86
2023-03-08T20:32:20.181Z,986.90
2023-03-08T20:35:27.505Z,986.89
2023-03-08T20:38:35.313Z,986.92
2023-03-08T20:41:43.318Z,986.97
2023-03-08T20:44:50.498Z,987.02
2023-03-08T20:47:58.601Z,986.97
2023-03-08T20:51:06.192Z,986.94
2023-03-08T20:54:13.592Z,987.03
2023-03-08T20:57:21.531Z,987.07
2023-03-08T21:00:28.780Z,987.03
2023-03-08T21:03:36.683Z,987.01
2023-03-08T21:06:44.525Z,987.03
2023-03-08T21:09:51.702Z,986.94
2023-03-08T21:12:59.605Z,986.93
2023-03-08T21:16:07.224Z,986.93
2023-03-08T21:19:14.921Z,987.01
2023-03-08T21:22:22.956Z,986.96
2023-03-08T21:25:30.821Z,986.93
2023-03-08T21:28:38.230Z,987.00
2023-03-08T21:31:46.053Z,986.91
2023-03-08T21:34:53.607Z,986.74
2023-03-08T21:38:01.338Z,986.72
2023-03-08T21:41:09.473Z,986.61
2023-03-08T21:44:17.228Z,986.67
2023-03-08T21:47:24.902Z,986.50
2023-03-08T21:50:32.225Z,986.59
2023-03-08T21:53:40.181Z,986.53
2023-03-08T21:56:47.906Z,986.51
2023-03-08T21:59:55.634Z,986.47
2023-03-08T22:03:03.553Z,986.26
2023-03-08T22:06:10.873Z,986.21
2023-03-08T22:09:18.970Z,986.28
2023-03-08T22:12:26.665Z,986.21
2023-03-08T22:15:34.047Z,986.09
2023-03-08T22:18:41.963Z,986.10
2023-03-08T22:21:50.986Z,986.14
2023-03-08T22:24:58.758Z,986.21
2023-03-08T22:28:06.805Z,986.16
2023-03-08T22:31:14.432Z,986.09
2023-03-08T22:34:22.025Z,986.04
2023-03-08T22:37:29.708Z,986.04
2023-03-08T22:40:41.241Z,985.86
2023-03-08T22:43:49.515Z,985.84
2023-03-08T22:46:56.758Z,985.78
2023-03-08T22:50:04.998Z,985.77
2023-03-08T22:53:12.538Z,985.70
2023-03-08T22:56:20.093Z,985.67
2023-03-08T22:59:28.058Z,985.71
2023-03-08T23:02:35.455Z,985.71
2023-03-08T23:05:42.727Z,985.65
2023-03-08T23:08:50.519Z,985.67
2023-03-08T23:11:58.192Z,985.64
2023-03-08T23:15:05.679Z,985.64
2023-03-08T23:18:13.386Z,985.67
2023-03-08T23:21:20.396Z,985.67
2023-03-08T23:24:28.245Z,985.69
2023-03-08T23:27:36.241Z,985.70
2023-03-08T23:30:43.392Z,985.76
2023-03-08T23:33:51.436Z,985.70
2023-03-08T23:36:58.722Z,985.78
2023-03-08T23:40:06.653Z,985.74
2023-03-08T23:43:14.525Z,985.78
2023-03-08T23:46:21.837Z,985.66
2023-03-08T23:49:29.955Z,985.68
2023-03-08T23:52:37.489Z,985.65
2023-03-08T23:55:44.988Z,985.56
2023-03-08T23:58:53.065Z,985.48
